sensor_id;sensor_type;location;lat;lon;timestamp;temperature;humidity
67364;HTU21D;54250;45.572;38.086;2023-03-01T00:01:17;1.94;82.17
67364;HTU21D;54250;45.572;38.086;2023-03-01T00:03:43;1.79;82.33
67364;HTU21D;54250;45.572;38.086;2023-03-01T00:06:10;1.64;82.46
67364;HTU21D;54250;45.572;38.086;2023-03-01T00:08:36;1.53;82.52
67364;HTU21D;54250;45.572;38.086;2023-03-01T00:11:24;1.42;82.43
67364;HTU21D;54250;45.572;38.086;2023-03-01T00:13:53;1.26;82.54
67364;HTU21D;54250;45.572;38.086;2023-03-01T00:16:25;1.16;82.53
67364;HTU21D;54250;45.572;38.086;2023-03-01T00:18:51;1.02;82.68
67364;HTU21D;54250;45.572;38.086;2023-03-01T00:21:17;0.89;82.75
67364;HTU21D;54250;45.572;38.086;2023-03-01T00:23:45;0.79;82.87
67364;HTU21D;54250;45.572;38.086;2023-03-01T00:26:13;0.69;82.91
67364;HTU21D;54250;45.572;38.086;2023-03-01T00:28:40;0.58;83.03
67364;HTU21D;54250;45.572;38.086;2023-03-01T00:31:10;0.49;83.09
67364;HTU21D;54250;45.572;38.086;2023-03-01T00:33:37;0.36;83.24
67364;HTU21D;54250;45.572;38.086;2023-03-01T00:36:04;0.27;83.30
67364;HTU21D;54250;45.572;38.086;2023-03-01T00:38:34;0.18;83.36
67364;HTU21D;54250;45.572;38.086;2023-03-01T00:41:07;0.08;83.49
67364;HTU21D;54250;45.572;38.086;2023-03-01T00:43:34;0.01;83.52
67364;HTU21D;54250;45.572;38.086;2023-03-01T00:46:07;0.01;83.48
67364;HTU21D;54250;45.572;38.086;2023-03-01T00:48:33;-0.03;83.39
67364;HTU21D;54250;45.572;38.086;2023-03-01T00:51:11;-0.12;83.29
67364;HTU21D;54250;45.572;38.086;2023-03-01T00:53:37;-0.20;83.51
67364;HTU21D;54250;45.572;38.086;2023-03-01T00:56:05;-0.22;83.54
67364;HTU21D;54250;45.572;38.086;2023-03-01T00:58:31;-0.19;83.43
67364;HTU21D;54250;45.572;38.086;2023-03-01T01:00:57;-0.17;83.27
67364;HTU21D;54250;45.572;38.086;2023-03-01T01:03:23;-0.17;83.19
67364;HTU21D;54250;45.572;38.086;2023-03-01T01:05:52;-0.15;83.11
67364;HTU21D;54250;45.572;38.086;2023-03-01T01:08:18;-0.19;83.12
67364;HTU21D;54250;45.572;38.086;2023-03-01T01:10:46;-0.23;83.20
67364;HTU21D;54250;45.572;38.086;2023-03-01T01:13:12;-0.28;83.31
67364;HTU21D;54250;45.572;38.086;2023-03-01T01:15:39;-0.29;83.36
67364;HTU21D;54250;45.572;38.086;2023-03-01T01:18:05;-0.29;83.35
67364;HTU21D;54250;45.572;38.086;2023-03-01T01:20:32;-0.30;83.32
67364;HTU21D;54250;45.572;38.086;2023-03-01T01:22:58;-0.34;83.32
67364;HTU21D;54250;45.572;38.086;2023-03-01T01:25:24;-0.30;83.31
67364;HTU21D;54250;45.572;38.086;2023-03-01T01:27:53;-0.28;83.13
67364;HTU21D;54250;45.572;38.086;2023-03-01T01:30:19;-0.27;83.02
67364;HTU21D;54250;45.572;38.086;2023-03-01T01:32:45;-0.28;83.02
67364;HTU21D;54250;45.572;38.086;2023-03-01T01:35:12;-0.34;83.15
67364;HTU21D;54250;45.572;38.086;2023-03-01T01:37:38;-0.38;83.22
67364;HTU21D;54250;45.572;38.086;2023-03-01T01:40:04;-0.39;83.28
67364;HTU21D;54250;45.572;38.086;2023-03-01T01:42:30;-0.39;83.29
67364;HTU21D;54250;45.572;38.086;2023-03-01T01:47:51;-0.35;83.31
67364;HTU21D;54250;45.572;38.086;2023-03-01T01:50:18;-0.29;83.14
67364;HTU21D;54250;45.572;38.086;2023-03-01T01:52:45;-0.28;83.07
67364;HTU21D;54250;45.572;38.086;2023-03-01T01:55:19;-0.25;83.11
67364;HTU21D;54250;45.572;38.086;2023-03-01T01:58:01;-0.25;83.03
67364;HTU21D;54250;45.572;38.086;2023-03-01T02:00:29;-0.28;83.26
67364;HTU21D;54250;45.572;38.086;2023-03-01T02:02:57;-0.30;83.46
67364;HTU21D;54250;45.572;38.086;2023-03-01T02:08:17;-0.31;83.39
67364;HTU21D;54250;45.572;38.086;2023-03-01T02:10:45;-0.32;83.46
67364;HTU21D;54250;45.572;38.086;2023-03-01T02:13:12;-0.30;83.59
67364;HTU21D;54250;45.572;38.086;2023-03-01T02:15:40;-0.29;83.49
67364;HTU21D;54250;45.572;38.086;2023-03-01T02:18:07;-0.29;83.52
67364;HTU21D;54250;45.572;38.086;2023-03-01T02:23:18;-0.23;83.49
67364;HTU21D;54250;45.572;38.086;2023-03-01T02:28:58;-0.22;83.66
67364;HTU21D;54250;45.572;38.086;2023-03-01T02:31:25;-0.15;83.58
67364;HTU21D;54250;45.572;38.086;2023-03-01T02:34:18;-0.06;83.45
67364;HTU21D;54250;45.572;38.086;2023-03-01T02:36:53;0.06;83.34
67364;HTU21D;54250;45.572;38.086;2023-03-01T02:39:25;0.10;83.07
67364;HTU21D;54250;45.572;38.086;2023-03-01T02:41:54;0.15;83.21
67364;HTU21D;54250;45.572;38.086;2023-03-01T02:44:22;0.13;83.26
67364;HTU21D;54250;45.572;38.086;2023-03-01T02:46:55;0.17;83.42
67364;HTU21D;54250;45.572;38.086;2023-03-01T02:49:26;0.24;83.49
67364;HTU21D;54250;45.572;38.086;2023-03-01T02:54:41;0.40;83.26
67364;HTU21D;54250;45.572;38.086;2023-03-01T02:57:09;0.48;83.18
67364;HTU21D;54250;45.572;38.086;2023-03-01T02:59:37;0.60;83.10
67364;HTU21D;54250;45.572;38.086;2023-03-01T03:02:28;0.67;82.90
67364;HTU21D;54250;45.572;38.086;2023-03-01T03:05:17;0.66;82.71
67364;HTU21D;54250;45.572;38.086;2023-03-01T03:07:45;0.71;83.16
67364;HTU21D;54250;45.572;38.086;2023-03-01T03:10:15;0.76;83.16
67364;HTU21D;54250;45.572;38.086;2023-03-01T03:12:41;0.81;83.29
67364;HTU21D;54250;45.572;38.086;2023-03-01T03:15:10;0.86;83.50
67364;HTU21D;54250;45.572;38.086;2023-03-01T03:17:40;0.88;83.72
67364;HTU21D;54250;45.572;38.086;2023-03-01T03:20:08;0.91;83.65
67364;HTU21D;54250;45.572;38.086;2023-03-01T03:22:38;0.97;83.53
67364;HTU21D;54250;45.572;38.086;2023-03-01T03:25:08;1.03;83.52
67364;HTU21D;54250;45.572;38.086;2023-03-01T03:27:41;1.07;83.74
67364;HTU21D;54250;45.572;38.086;2023-03-01T03:30:10;1.11;83.53
67364;HTU21D;54250;45.572;38.086;2023-03-01T03:32:41;1.14;83.49
67364;HTU21D;54250;45.572;38.086;2023-03-01T03:35:09;1.20;83.52
67364;HTU21D;54250;45.572;38.086;2023-03-01T03:37:37;1.23;83.47
67364;HTU21D;54250;45.572;38.086;2023-03-01T03:40:21;1.26;83.45
67364;HTU21D;54250;45.572;38.086;2023-03-01T03:42:47;1.31;83.45
67364;HTU21D;54250;45.572;38.086;2023-03-01T03:45:14;1.37;83.45
67364;HTU21D;54250;45.572;38.086;2023-03-01T03:47:41;1.39;83.39
67364;HTU21D;54250;45.572;38.086;2023-03-01T03:50:08;1.46;83.29
67364;HTU21D;54250;45.572;38.086;2023-03-01T03:52:34;1.53;83.27
67364;HTU21D;54250;45.572;38.086;2023-03-01T03:55:00;1.56;83.36
67364;HTU21D;54250;45.572;38.086;2023-03-01T03:57:26;1.63;83.27
67364;HTU21D;54250;45.572;38.086;2023-03-01T03:59:52;1.68;83.29
67364;HTU21D;54250;45.572;38.086;2023-03-01T04:02:18;1.75;83.23
67364;HTU21D;54250;45.572;38.086;2023-03-01T04:04:48;1.82;83.18
67364;HTU21D;54250;45.572;38.086;2023-03-01T04:07:17;1.87;83.13
67364;HTU21D;54250;45.572;38.086;2023-03-01T04:09:43;1.92;83.18
67364;HTU21D;54250;45.572;38.086;2023-03-01T04:12:09;1.96;83.10
67364;HTU21D;54250;45.572;38.086;2023-03-01T04:14:36;2.05;83.00
67364;HTU21D;54250;45.572;38.086;2023-03-01T04:17:02;2.11;82.87
67364;HTU21D;54250;45.572;38.086;2023-03-01T04:19:31;2.15;82.78
67364;HTU21D;54250;45.572;38.086;2023-03-01T04:22:04;2.20;82.73
67364;HTU21D;54250;45.572;38.086;2023-03-01T04:24:35;2.22;82.70
67364;HTU21D;54250;45.572;38.086;2023-03-01T04:27:02;2.25;82.65
67364;HTU21D;54250;45.572;38.086;2023-03-01T04:29:28;2.27;82.69
67364;HTU21D;54250;45.572;38.086;2023-03-01T04:31:54;2.26;82.78
67364;HTU21D;54250;45.572;38.086;2023-03-01T04:34:20;2.28;82.81
67364;HTU21D;54250;45.572;38.086;2023-03-01T04:36:46;2.29;82.86
67364;HTU21D;54250;45.572;38.086;2023-03-01T04:39:12;2.30;82.84
67364;HTU21D;54250;45.572;38.086;2023-03-01T04:41:39;2.30;82.88
67364;HTU21D;54250;45.572;38.086;2023-03-01T04:44:06;2.28;82.87
67364;HTU21D;54250;45.572;38.086;2023-03-01T04:46:32;2.25;82.87
67364;HTU21D;54250;45.572;38.086;2023-03-01T04:48:58;2.23;82.97
67364;HTU21D;54250;45.572;38.086;2023-03-01T04:51:24;2.25;82.88
67364;HTU21D;54250;45.572;38.086;2023-03-01T04:53:50;2.28;82.81
67364;HTU21D;54250;45.572;38.086;2023-03-01T04:56:16;2.34;82.68
67364;HTU21D;54250;45.572;38.086;2023-03-01T04:58:46;2.35;82.70
67364;HTU21D;54250;45.572;38.086;2023-03-01T05:01:17;2.34;82.75
67364;HTU21D;54250;45.572;38.086;2023-03-01T05:03:48;2.29;82.91
67364;HTU21D;54250;45.572;38.086;2023-03-01T05:06:15;2.26;82.88
67364;HTU21D;54250;45.572;38.086;2023-03-01T05:08:43;2.27;82.85
67364;HTU21D;54250;45.572;38.086;2023-03-01T05:11:10;2.28;82.82
67364;HTU21D;54250;45.572;38.086;2023-03-01T05:13:37;2.32;82.72
67364;HTU21D;54250;45.572;38.086;2023-03-01T05:16:05;2.43;82.55
67364;HTU21D;54250;45.572;38.086;2023-03-01T05:18:33;2.52;82.40
67364;HTU21D;54250;45.572;38.086;2023-03-01T05:21:10;2.58;82.26
67364;HTU21D;54250;45.572;38.086;2023-03-01T05:23:36;2.60;82.29
67364;HTU21D;54250;45.572;38.086;2023-03-01T05:26:03;2.64;82.29
67364;HTU21D;54250;45.572;38.086;2023-03-01T05:28:32;2.66;82.33
67364;HTU21D;54250;45.572;38.086;2023-03-01T05:30:58;2.65;82.38
67364;HTU21D;54250;45.572;38.086;2023-03-01T05:33:24;2.67;82.42
67364;HTU21D;54250;45.572;38.086;2023-03-01T05:35:51;2.70;82.40
67364;HTU21D;54250;45.572;38.086;2023-03-01T05:38:20;2.76;82.37
67364;HTU21D;54250;45.572;38.086;2023-03-01T05:40:47;2.86;82.21
67364;HTU21D;54250;45.572;38.086;2023-03-01T05:43:15;2.91;82.13
67364;HTU21D;54250;45.572;38.086;2023-03-01T05:45:42;2.98;82.06
67364;HTU21D;54250;45.572;38.086;2023-03-01T05:48:09;3.05;81.99
67364;HTU21D;54250;45.572;38.086;2023-03-01T05:50:38;3.14;81.96
67364;HTU21D;54250;45.572;38.086;2023-03-01T05:53:16;3.32;81.66
67364;HTU21D;54250;45.572;38.086;2023-03-01T05:55:44;3.46;81.46
67364;HTU21D;54250;45.572;38.086;2023-03-01T05:58:15;3.57;81.39
67364;HTU21D;54250;45.572;38.086;2023-03-01T06:00:42;3.68;81.44
67364;HTU21D;54250;45.572;38.086;2023-03-01T06:03:10;3.76;81.17
67364;HTU21D;54250;45.572;38.086;2023-03-01T06:05:36;3.90;81.13
67364;HTU21D;54250;45.572;38.086;2023-03-01T06:08:03;3.87;80.96
67364;HTU21D;54250;45.572;38.086;2023-03-01T06:10:29;3.76;81.20
67364;HTU21D;54250;45.572;38.086;2023-03-01T06:12:55;3.73;81.34
67364;HTU21D;54250;45.572;38.086;2023-03-01T06:15:22;3.67;81.36
67364;HTU21D;54250;45.572;38.086;2023-03-01T06:17:49;3.63;81.39
67364;HTU21D;54250;45.572;38.086;2023-03-01T06:20:20;3.64;81.28
67364;HTU21D;54250;45.572;38.086;2023-03-01T06:22:48;3.71;81.26
67364;HTU21D;54250;45.572;38.086;2023-03-01T06:25:16;3.82;81.04
67364;HTU21D;54250;45.572;38.086;2023-03-01T06:27:43;3.87;80.92
67364;HTU21D;54250;45.572;38.086;2023-03-01T06:30:11;3.93;80.80
67364;HTU21D;54250;45.572;38.086;2023-03-01T06:32:40;4.00;80.77
67364;HTU21D;54250;45.572;38.086;2023-03-01T06:35:13;3.99;80.69
67364;HTU21D;54250;45.572;38.086;2023-03-01T06:37:40;4.00;80.75
67364;HTU21D;54250;45.572;38.086;2023-03-01T06:40:07;4.07;80.72
67364;HTU21D;54250;45.572;38.086;2023-03-01T06:42:38;4.15;80.46
67364;HTU21D;54250;45.572;38.086;2023-03-01T06:45:06;4.18;80.47
67364;HTU21D;54250;45.572;38.086;2023-03-01T06:47:33;4.24;80.35
67364;HTU21D;54250;45.572;38.086;2023-03-01T06:50:02;4.28;80.14
67364;HTU21D;54250;45.572;38.086;2023-03-01T06:52:29;4.32;80.14
67364;HTU21D;54250;45.572;38.086;2023-03-01T06:54:55;4.44;79.95
67364;HTU21D;54250;45.572;38.086;2023-03-01T06:57:21;4.52;79.72
67364;HTU21D;54250;45.572;38.086;2023-03-01T06:59:47;4.59;79.70
67364;HTU21D;54250;45.572;38.086;2023-03-01T07:02:14;4.66;79.57
67364;HTU21D;54250;45.572;38.086;2023-03-01T07:04:41;4.73;79.49
67364;HTU21D;54250;45.572;38.086;2023-03-01T07:07:06;4.74;79.47
67364;HTU21D;54250;45.572;38.086;2023-03-01T07:09:33;4.94;79.46
67364;HTU21D;54250;45.572;38.086;2023-03-01T07:11:59;5.30;78.48
67364;HTU21D;54250;45.572;38.086;2023-03-01T07:14:25;5.30;78.28
67364;HTU21D;54250;45.572;38.086;2023-03-01T07:16:55;5.34;78.34
67364;HTU21D;54250;45.572;38.086;2023-03-01T07:19:21;5.30;78.46
67364;HTU21D;54250;45.572;38.086;2023-03-01T07:21:47;5.32;78.66
67364;HTU21D;54250;45.572;38.086;2023-03-01T07:24:14;5.32;78.56
67364;HTU21D;54250;45.572;38.086;2023-03-01T07:26:40;5.16;78.66
67364;HTU21D;54250;45.572;38.086;2023-03-01T07:29:07;5.07;78.85
67364;HTU21D;54250;45.572;38.086;2023-03-01T07:31:35;5.18;78.86
67364;HTU21D;54250;45.572;38.086;2023-03-01T07:34:02;5.64;78.41
67364;HTU21D;54250;45.572;38.086;2023-03-01T07:36:28;7.60;75.18
67364;HTU21D;54250;45.572;38.086;2023-03-01T07:38:54;9.06;70.85
67364;HTU21D;54250;45.572;38.086;2023-03-01T07:41:21;8.44;71.92
67364;HTU21D;54250;45.572;38.086;2023-03-01T07:43:47;7.92;73.96
67364;HTU21D;54250;45.572;38.086;2023-03-01T07:46:13;7.65;75.03
67364;HTU21D;54250;45.572;38.086;2023-03-01T07:48:39;7.72;75.45
67364;HTU21D;54250;45.572;38.086;2023-03-01T07:51:06;9.17;73.67
67364;HTU21D;54250;45.572;38.086;2023-03-01T07:53:33;10.52;69.96
67364;HTU21D;54250;45.572;38.086;2023-03-01T07:56:11;11.42;68.17
67364;HTU21D;54250;45.572;38.086;2023-03-01T07:58:40;11.18;68.63
67364;HTU21D;54250;45.572;38.086;2023-03-01T08:01:11;10.48;70.16
67364;HTU21D;54250;45.572;38.086;2023-03-01T08:03:37;9.88;71.69
67364;HTU21D;54250;45.572;38.086;2023-03-01T08:06:06;10.06;72.00
67364;HTU21D;54250;45.572;38.086;2023-03-01T08:08:33;10.33;71.08
67364;HTU21D;54250;45.572;38.086;2023-03-01T08:11:01;10.64;70.13
67364;HTU21D;54250;45.572;38.086;2023-03-01T08:13:28;10.44;70.03
67364;HTU21D;54250;45.572;38.086;2023-03-01T08:15:54;11.27;69.78
67364;HTU21D;54250;45.572;38.086;2023-03-01T08:18:20;12.35;67.19
67364;HTU21D;54250;45.572;38.086;2023-03-01T08:20:47;13.79;64.73
67364;HTU21D;54250;45.572;38.086;2023-03-01T08:23:13;14.21;63.72
67364;HTU21D;54250;45.572;38.086;2023-03-01T08:25:39;13.92;65.04
67364;HTU21D;54250;45.572;38.086;2023-03-01T08:28:05;13.93;64.33
67364;HTU21D;54250;45.572;38.086;2023-03-01T08:30:31;13.70;65.04
67364;HTU21D;54250;45.572;38.086;2023-03-01T08:32:57;13.86;65.23
67364;HTU21D;54250;45.572;38.086;2023-03-01T08:35:23;14.00;64.30
67364;HTU21D;54250;45.572;38.086;2023-03-01T08:37:49;14.09;63.93
67364;HTU21D;54250;45.572;38.086;2023-03-01T08:40:15;13.62;64.33
67364;HTU21D;54250;45.572;38.086;2023-03-01T08:42:42;12.77;65.59
67364;HTU21D;54250;45.572;38.086;2023-03-01T08:45:12;12.33;65.89
67364;HTU21D;54250;45.572;38.086;2023-03-01T08:47:39;12.02;66.16
67364;HTU21D;54250;45.572;38.086;2023-03-01T08:50:06;11.86;66.04
67364;HTU21D;54250;45.572;38.086;2023-03-01T08:52:33;11.72;66.04
67364;HTU21D;54250;45.572;38.086;2023-03-01T08:54:59;11.90;65.91
67364;HTU21D;54250;45.572;38.086;2023-03-01T08:57:27;12.31;64.88
67364;HTU21D;54250;45.572;38.086;2023-03-01T08:59:53;13.19;63.22
67364;HTU21D;54250;45.572;38.086;2023-03-01T09:02:21;13.58;61.94
67364;HTU21D;54250;45.572;38.086;2023-03-01T09:04:47;14.21;61.73
67364;HTU21D;54250;45.572;38.086;2023-03-01T09:07:13;15.03;60.47
67364;HTU21D;54250;45.572;38.086;2023-03-01T09:09:39;15.75;58.95
67364;HTU21D;54250;45.572;38.086;2023-03-01T09:12:06;16.20;58.72
67364;HTU21D;54250;45.572;38.086;2023-03-01T09:14:32;15.56;59.17
67364;HTU21D;54250;45.572;38.086;2023-03-01T09:16:58;14.57;60.27
67364;HTU21D;54250;45.572;38.086;2023-03-01T09:19:28;14.13;61.44
67364;HTU21D;54250;45.572;38.086;2023-03-01T09:21:54;13.47;62.05
67364;HTU21D;54250;45.572;38.086;2023-03-01T09:24:23;13.07;62.73
67364;HTU21D;54250;45.572;38.086;2023-03-01T09:26:53;12.85;62.69
67364;HTU21D;54250;45.572;38.086;2023-03-01T09:29:19;12.37;62.54
67364;HTU21D;54250;45.572;38.086;2023-03-01T09:31:45;12.14;63.50
67364;HTU21D;54250;45.572;38.086;2023-03-01T09:34:11;12.60;62.42
67364;HTU21D;54250;45.572;38.086;2023-03-01T09:36:39;12.91;61.96
67364;HTU21D;54250;45.572;38.086;2023-03-01T09:39:05;12.85;61.12
67364;HTU21D;54250;45.572;38.086;2023-03-01T09:44:38;12.21;62.49
67364;HTU21D;54250;45.572;38.086;2023-03-01T09:47:12;11.96;62.90
67364;HTU21D;54250;45.572;38.086;2023-03-01T09:49:41;11.91;63.01
67364;HTU21D;54250;45.572;38.086;2023-03-01T09:52:28;11.98;61.83
67364;HTU21D;54250;45.572;38.086;2023-03-01T09:54:56;11.66;62.35
67364;HTU21D;54250;45.572;38.086;2023-03-01T10:00:37;10.43;63.59
67364;HTU21D;54250;45.572;38.086;2023-03-01T10:03:23;10.04;64.30
67364;HTU21D;54250;45.572;38.086;2023-03-01T10:06:20;10.36;64.49
67364;HTU21D;54250;45.572;38.086;2023-03-01T10:09:04;10.96;63.07
67364;HTU21D;54250;45.572;38.086;2023-03-01T10:11:37;11.36;62.34
67364;HTU21D;54250;45.572;38.086;2023-03-01T10:16:48;11.92;61.27
67364;HTU21D;54250;45.572;38.086;2023-03-01T10:19:23;11.47;61.79
67364;HTU21D;54250;45.572;38.086;2023-03-01T10:21:50;10.82;62.72
67364;HTU21D;54250;45.572;38.086;2023-03-01T10:24:18;10.44;63.47
67364;HTU21D;54250;45.572;38.086;2023-03-01T10:26:57;10.50;63.83
67364;HTU21D;54250;45.572;38.086;2023-03-01T10:29:31;10.63;63.26
67364;HTU21D;54250;45.572;38.086;2023-03-01T10:32:00;10.51;63.42
67364;HTU21D;54250;45.572;38.086;2023-03-01T10:34:30;10.72;63.44
67364;HTU21D;54250;45.572;38.086;2023-03-01T10:37:21;11.51;62.17
67364;HTU21D;54250;45.572;38.086;2023-03-01T10:39:57;11.48;61.92
67364;HTU21D;54250;45.572;38.086;2023-03-01T10:42:31;11.02;62.71
67364;HTU21D;54250;45.572;38.086;2023-03-01T10:45:16;10.62;62.99
67364;HTU21D;54250;45.572;38.086;2023-03-01T10:47:42;10.43;63.60
67364;HTU21D;54250;45.572;38.086;2023-03-01T10:50:20;10.10;63.58
67364;HTU21D;54250;45.572;38.086;2023-03-01T10:53:03;9.56;64.39
67364;HTU21D;54250;45.572;38.086;2023-03-01T10:55:38;9.06;64.64
67364;HTU21D;54250;45.572;38.086;2023-03-01T11:03:41;8.48;65.34
67364;HTU21D;54250;45.572;38.086;2023-03-01T11:14:06;7.94;65.88
67364;HTU21D;54250;45.572;38.086;2023-03-01T11:16:38;7.82;66.05
67364;HTU21D;54250;45.572;38.086;2023-03-01T11:21:41;7.64;66.04
67364;HTU21D;54250;45.572;38.086;2023-03-01T11:24:14;7.42;65.95
67364;HTU21D;54250;45.572;38.086;2023-03-01T11:26:43;7.27;66.34
67364;HTU21D;54250;45.572;38.086;2023-03-01T11:29:37;7.42;66.36
67364;HTU21D;54250;45.572;38.086;2023-03-01T11:32:08;7.50;66.30
67364;HTU21D;54250;45.572;38.086;2023-03-01T11:34:53;7.53;66.17
67364;HTU21D;54250;45.572;38.086;2023-03-01T11:40:28;7.39;66.65
67364;HTU21D;54250;45.572;38.086;2023-03-01T11:45:52;7.86;65.98
67364;HTU21D;54250;45.572;38.086;2023-03-01T11:48:33;7.76;65.88
67364;HTU21D;54250;45.572;38.086;2023-03-01T11:51:16;7.71;66.25
67364;HTU21D;54250;45.572;38.086;2023-03-01T11:53:53;7.50;66.07
67364;HTU21D;54250;45.572;38.086;2023-03-01T11:56:31;7.39;66.40
67364;HTU21D;54250;45.572;38.086;2023-03-01T12:01:56;7.48;66.06
67364;HTU21D;54250;45.572;38.086;2023-03-01T12:10:02;7.38;66.21
67364;HTU21D;54250;45.572;38.086;2023-03-01T12:21:18;6.76;66.88
67364;HTU21D;54250;45.572;38.086;2023-03-01T12:29:25;6.78;66.81
67364;HTU21D;54250;45.572;38.086;2023-03-01T12:49:13;6.61;66.18
67364;HTU21D;54250;45.572;38.086;2023-03-01T12:51:43;6.51;66.39
67364;HTU21D;54250;45.572;38.086;2023-03-01T12:54:20;6.48;66.46
67364;HTU21D;54250;45.572;38.086;2023-03-01T12:56:51;6.55;66.53
67364;HTU21D;54250;45.572;38.086;2023-03-01T12:59:19;6.56;66.31
67364;HTU21D;54250;45.572;38.086;2023-03-01T13:02:31;6.45;66.49
67364;HTU21D;54250;45.572;38.086;2023-03-01T13:08:20;6.42;66.75
67364;HTU21D;54250;45.572;38.086;2023-03-01T13:10:58;6.34;66.93
67364;HTU21D;54250;45.572;38.086;2023-03-01T13:13:27;6.30;67.13
67364;HTU21D;54250;45.572;38.086;2023-03-01T13:15:54;6.30;67.04
67364;HTU21D;54250;45.572;38.086;2023-03-01T13:20:52;6.14;67.17
67364;HTU21D;54250;45.572;38.086;2023-03-01T13:34:00;5.20;68.46
67364;HTU21D;54250;45.572;38.086;2023-03-01T13:39:31;4.95;68.68
67364;HTU21D;54250;45.572;38.086;2023-03-01T13:41:59;4.77;69.10
67364;HTU21D;54250;45.572;38.086;2023-03-01T13:44:38;4.64;69.35
67364;HTU21D;54250;45.572;38.086;2023-03-01T13:49:46;4.58;69.71
67364;HTU21D;54250;45.572;38.086;2023-03-01T13:52:35;4.53;69.74
67364;HTU21D;54250;45.572;38.086;2023-03-01T13:55:05;4.52;69.90
67364;HTU21D;54250;45.572;38.086;2023-03-01T13:57:37;4.53;69.97
67364;HTU21D;54250;45.572;38.086;2023-03-01T14:00:24;4.43;70.19
67364;HTU21D;54250;45.572;38.086;2023-03-01T14:03:17;4.27;70.39
67364;HTU21D;54250;45.572;38.086;2023-03-01T14:06:23;4.14;70.59
67364;HTU21D;54250;45.572;38.086;2023-03-01T14:09:01;4.01;70.84
67364;HTU21D;54250;45.572;38.086;2023-03-01T14:14:40;3.92;71.43
67364;HTU21D;54250;45.572;38.086;2023-03-01T14:19:34;3.91;71.46
67364;HTU21D;54250;45.572;38.086;2023-03-01T14:22:20;3.86;71.51
67364;HTU21D;54250;45.572;38.086;2023-03-01T14:24:55;3.78;71.64
67364;HTU21D;54250;45.572;38.086;2023-03-01T14:27:24;3.73;71.80
67364;HTU21D;54250;45.572;38.086;2023-03-01T14:30:00;3.69;71.83
67364;HTU21D;54250;45.572;38.086;2023-03-01T14:32:28;3.63;72.00
67364;HTU21D;54250;45.572;38.086;2023-03-01T14:34:55;3.52;72.16
67364;HTU21D;54250;45.572;38.086;2023-03-01T14:37:30;3.39;72.29
67364;HTU21D;54250;45.572;38.086;2023-03-01T14:39:58;3.26;72.51
67364;HTU21D;54250;45.572;38.086;2023-03-01T14:42:28;3.15;72.64
67364;HTU21D;54250;45.572;38.086;2023-03-01T14:44:56;3.03;72.78
67364;HTU21D;54250;45.572;38.086;2023-03-01T14:47:29;2.94;72.80
67364;HTU21D;54250;45.572;38.086;2023-03-01T14:50:05;2.82;72.93
67364;HTU21D;54250;45.572;38.086;2023-03-01T14:52:38;2.69;73.08
67364;HTU21D;54250;45.572;38.086;2023-03-01T14:55:16;2.54;73.07
67364;HTU21D;54250;45.572;38.086;2023-03-01T14:57:47;2.40;73.32
67364;HTU21D;54250;45.572;38.086;2023-03-01T15:02:47;2.21;73.54
67364;HTU21D;54250;45.572;38.086;2023-03-01T15:05:15;2.08;73.62
67364;HTU21D;54250;45.572;38.086;2023-03-01T15:07:42;1.93;73.82
67364;HTU21D;54250;45.572;38.086;2023-03-01T15:10:26;1.77;73.92
67364;HTU21D;54250;45.572;38.086;2023-03-01T15:12:53;1.62;74.22
67364;HTU21D;54250;45.572;38.086;2023-03-01T15:15:43;1.48;74.12
67364;HTU21D;54250;45.572;38.086;2023-03-01T15:18:25;1.38;74.44
67364;HTU21D;54250;45.572;38.086;2023-03-01T15:20:53;1.24;74.73
67364;HTU21D;54250;45.572;38.086;2023-03-01T15:23:25;1.14;74.72
67364;HTU21D;54250;45.572;38.086;2023-03-01T15:25:53;1.03;74.80
67364;HTU21D;54250;45.572;38.086;2023-03-01T15:28:32;0.93;74.78
67364;HTU21D;54250;45.572;38.086;2023-03-01T15:31:25;0.80;74.96
67364;HTU21D;54250;45.572;38.086;2023-03-01T15:33:49;0.63;75.12
67364;HTU21D;54250;45.572;38.086;2023-03-01T15:36:44;0.45;75.04
67364;HTU21D;54250;45.572;38.086;2023-03-01T15:39:56;0.20;75.33
67364;HTU21D;54250;45.572;38.086;2023-03-01T15:47:57;0.08;75.91
67364;HTU21D;54250;45.572;38.086;2023-03-01T15:50:29;0.05;76.61
67364;HTU21D;54250;45.572;38.086;2023-03-01T15:52:56;0.04;76.71
67364;HTU21D;54250;45.572;38.086;2023-03-01T15:55:28;0.02;76.52
67364;HTU21D;54250;45.572;38.086;2023-03-01T15:58:17;-0.03;76.48
67364;HTU21D;54250;45.572;38.086;2023-03-01T16:00:46;-0.03;77.12
67364;HTU21D;54250;45.572;38.086;2023-03-01T16:03:14;-0.02;77.52
67364;HTU21D;54250;45.572;38.086;2023-03-01T16:05:42;-0.06;77.63
67364;HTU21D;54250;45.572;38.086;2023-03-01T16:08:09;-0.09;77.44
67364;HTU21D;54250;45.572;38.086;2023-03-01T16:10:35;-0.08;77.71
67364;HTU21D;54250;45.572;38.086;2023-03-01T16:13:01;-0.09;78.17
67364;HTU21D;54250;45.572;38.086;2023-03-01T16:15:33;-0.06;78.02
67364;HTU21D;54250;45.572;38.086;2023-03-01T16:18:02;-0.03;78.24
67364;HTU21D;54250;45.572;38.086;2023-03-01T16:20:29;-0.06;78.35
67364;HTU21D;54250;45.572;38.086;2023-03-01T16:22:58;-0.08;79.11
67364;HTU21D;54250;45.572;38.086;2023-03-01T16:25:25;-0.12;79.28
67364;HTU21D;54250;45.572;38.086;2023-03-01T16:27:51;-0.14;79.10
67364;HTU21D;54250;45.572;38.086;2023-03-01T16:30:20;-0.19;79.21
67364;HTU21D;54250;45.572;38.086;2023-03-01T16:32:48;-0.25;78.95
67364;HTU21D;54250;45.572;38.086;2023-03-01T16:35:17;-0.35;78.99
67364;HTU21D;54250;45.572;38.086;2023-03-01T16:37:43;-0.44;79.08
67364;HTU21D;54250;45.572;38.086;2023-03-01T16:42:43;-0.72;79.00
67364;HTU21D;54250;45.572;38.086;2023-03-01T16:45:10;-0.88;79.13
67364;HTU21D;54250;45.572;38.086;2023-03-01T16:47:36;-1.05;79.27
67364;HTU21D;54250;45.572;38.086;2023-03-01T16:50:03;-1.19;79.51
67364;HTU21D;54250;45.572;38.086;2023-03-01T16:52:29;-1.29;79.80
67364;HTU21D;54250;45.572;38.086;2023-03-01T16:54:57;-1.32;79.82
67364;HTU21D;54250;45.572;38.086;2023-03-01T16:57:24;-1.34;79.69
67364;HTU21D;54250;45.572;38.086;2023-03-01T16:59:53;-1.34;79.53
67364;HTU21D;54250;45.572;38.086;2023-03-01T17:02:20;-1.43;79.56
67364;HTU21D;54250;45.572;38.086;2023-03-01T17:04:55;-1.43;79.76
67364;HTU21D;54250;45.572;38.086;2023-03-01T17:07:21;-1.44;79.66
67364;HTU21D;54250;45.572;38.086;2023-03-01T17:09:48;-1.50;79.43
67364;HTU21D;54250;45.572;38.086;2023-03-01T17:12:15;-1.53;79.82
67364;HTU21D;54250;45.572;38.086;2023-03-01T17:14:41;-1.54;79.59
67364;HTU21D;54250;45.572;38.086;2023-03-01T17:17:08;-1.56;79.53
67364;HTU21D;54250;45.572;38.086;2023-03-01T17:19:35;-1.61;79.40
67364;HTU21D;54250;45.572;38.086;2023-03-01T17:22:06;-1.63;79.40
67364;HTU21D;54250;45.572;38.086;2023-03-01T17:24:37;-1.70;79.40
67364;HTU21D;54250;45.572;38.086;2023-03-01T17:27:04;-1.74;79.59
67364;HTU21D;54250;45.572;38.086;2023-03-01T17:29:31;-1.75;79.56
67364;HTU21D;54250;45.572;38.086;2023-03-01T17:31:57;-1.76;79.53